sensor_id;sensor_type;location;lat;lon;timestamp;temperature;humidity
13806;DHT22;6974;53.606;9.872;2022-08-25T00:01:53;22.90;99.90
13806;DHT22;6974;53.606;9.872;2022-08-25T00:04:21;22.90;99.90
13806;DHT22;6974;53.606;9.872;2022-08-25T00:06:48;22.90;99.90
13806;DHT22;6974;53.606;9.872;2022-08-25T00:09:20;22.80;99.90
13806;DHT22;6974;53.606;9.872;2022-08-25T00:11:49;22.80;99.90
13806;DHT22;6974;53.606;9.872;2022-08-25T00:14:19;22.90;99.90
13806;DHT22;6974;53.606;9.872;2022-08-25T00:16:46;22.80;99.90
13806;DHT22;6974;53.606;9.872;2022-08-25T00:19:16;22.80;99.90
13806;DHT22;6974;53.606;9.872;2022-08-25T00:21:44;22.80;99.90
13806;DHT22;6974;53.606;9.872;2022-08-25T00:24:12;22.80;99.90
13806;DHT22;6974;53.606;9.872;2022-08-25T00:26:43;22.70;99.90
13806;DHT22;6974;53.606;9.872;2022-08-25T00:29:10;22.80;99.90
13806;DHT22;6974;53.606;9.872;2022-08-25T00:31:38;22.70;99.90
13806;DHT22;6974;53.606;9.872;2022-08-25T00:34:08;22.70;99.90
13806;DHT22;6974;53.606;9.872;2022-08-25T00:36:35;22.70;99.90
13806;DHT22;6974;53.606;9.872;2022-08-25T00:39:04;22.70;99.90
13806;DHT22;6974;53.606;9.872;2022-08-25T00:41:32;22.60;99.90
13806;DHT22;6974;53.606;9.872;2022-08-25T00:44:04;22.60;99.90
13806;DHT22;6974;53.606;9.872;2022-08-25T00:46:36;22.60;99.90
13806;DHT22;6974;53.606;9.872;2022-08-25T00:49:06;22.60;99.90
13806;DHT22;6974;53.606;9.872;2022-08-25T00:51:41;22.50;99.90
13806;DHT22;6974;53.606;9.872;2022-08-25T00:54:12;22.50;99.90
13806;DHT22;6974;53.606;9.872;2022-08-25T00:56:41;22.50;99.90
13806;DHT22;6974;53.606;9.872;2022-08-25T00:59:10;22.40;99.90
13806;DHT22;6974;53.606;9.872;2022-08-25T01:01:38;22.40;99.90
13806;DHT22;6974;53.606;9.872;2022-08-25T01:04:05;22.40;99.90
13806;DHT22;6974;53.606;9.872;2022-08-25T01:06:36;22.40;99.90
13806;DHT22;6974;53.606;9.872;2022-08-25T01:09:05;22.40;99.90
13806;DHT22;6974;53.606;9.872;2022-08-25T01:11:32;22.30;99.90
13806;DHT22;6974;53.606;9.872;2022-08-25T01:14:01;22.30;99.90
13806;DHT22;6974;53.606;9.872;2022-08-25T01:16:33;22.30;99.90
13806;DHT22;6974;53.606;9.872;2022-08-25T01:19:01;22.30;99.90
13806;DHT22;6974;53.606;9.872;2022-08-25T01:21:31;22.20;99.90
13806;DHT22;6974;53.606;9.872;2022-08-25T01:24:03;22.20;99.90
13806;DHT22;6974;53.606;9.872;2022-08-25T01:26:32;22.20;99.90
13806;DHT22;6974;53.606;9.872;2022-08-25T01:29:02;22.20;99.90
13806;DHT22;6974;53.606;9.872;2022-08-25T01:31:52;22.10;99.90
13806;DHT22;6974;53.606;9.872;2022-08-25T01:34:22;22.10;99.90
13806;DHT22;6974;53.606;9.872;2022-08-25T01:36:52;22.10;99.90
13806;DHT22;6974;53.606;9.872;2022-08-25T01:39:19;22.10;99.90
13806;DHT22;6974;53.606;9.872;2022-08-25T01:45:05;22.10;99.90
13806;DHT22;6974;53.606;9.872;2022-08-25T01:47:33;22.00;99.90
13806;DHT22;6974;53.606;9.872;2022-08-25T01:50:00;22.00;99.90
13806;DHT22;6974;53.606;9.872;2022-08-25T01:52:32;22.00;99.90
13806;DHT22;6974;53.606;9.872;2022-08-25T01:54:59;22.00;99.90
13806;DHT22;6974;53.606;9.872;2022-08-25T01:57:28;22.00;99.90
13806;DHT22;6974;53.606;9.872;2022-08-25T01:59:55;22.00;99.90
13806;DHT22;6974;53.606;9.872;2022-08-25T02:02:23;21.90;99.90
13806;DHT22;6974;53.606;9.872;2022-08-25T02:04:50;21.90;99.90
13806;DHT22;6974;53.606;9.872;2022-08-25T02:07:18;21.90;99.90
13806;DHT22;6974;53.606;9.872;2022-08-25T02:09:47;21.90;99.90
13806;DHT22;6974;53.606;9.872;2022-08-25T02:12:14;21.80;99.90
13806;DHT22;6974;53.606;9.872;2022-08-25T02:14:41;21.80;99.90
13806;DHT22;6974;53.606;9.872;2022-08-25T02:17:09;21.80;99.90
13806;DHT22;6974;53.606;9.872;2022-08-25T02:19:36;21.70;99.90
13806;DHT22;6974;53.606;9.872;2022-08-25T02:22:03;21.80;99.90
13806;DHT22;6974;53.606;9.872;2022-08-25T02:24:32;21.70;99.90
13806;DHT22;6974;53.606;9.872;2022-08-25T02:27:01;21.70;99.90
13806;DHT22;6974;53.606;9.872;2022-08-25T02:29:28;21.70;99.90
13806;DHT22;6974;53.606;9.872;2022-08-25T02:31:55;21.60;99.90
13806;DHT22;6974;53.606;9.872;2022-08-25T02:34:23;21.60;99.90
13806;DHT22;6974;53.606;9.872;2022-08-25T02:36:52;21.60;99.90
13806;DHT22;6974;53.606;9.872;2022-08-25T02:39:18;21.60;99.90
13806;DHT22;6974;53.606;9.872;2022-08-25T02:41:45;21.50;99.90
13806;DHT22;6974;53.606;9.872;2022-08-25T02:44:14;21.50;99.90
13806;DHT22;6974;53.606;9.872;2022-08-25T02:46:41;21.50;99.90
13806;DHT22;6974;53.606;9.872;2022-08-25T02:49:08;21.50;99.90
13806;DHT22;6974;53.606;9.872;2022-08-25T02:51:36;21.50;99.90
13806;DHT22;6974;53.606;9.872;2022-08-25T02:54:04;21.50;99.90
13806;DHT22;6974;53.606;9.872;2022-08-25T02:56:32;21.50;99.90
13806;DHT22;6974;53.606;9.872;2022-08-25T02:58:59;21.50;99.90
13806;DHT22;6974;53.606;9.872;2022-08-25T03:01:29;21.50;99.90
13806;DHT22;6974;53.606;9.872;2022-08-25T03:03:57;21.40;99.90
13806;DHT22;6974;53.606;9.872;2022-08-25T03:06:25;21.40;99.90
13806;DHT22;6974;53.606;9.872;2022-08-25T03:08:53;21.30;99.90
13806;DHT22;6974;53.606;9.872;2022-08-25T03:11:22;21.30;99.90
13806;DHT22;6974;53.606;9.872;2022-08-25T03:13:51;21.30;99.90
13806;DHT22;6974;53.606;9.872;2022-08-25T03:16:19;21.30;99.90
13806;DHT22;6974;53.606;9.872;2022-08-25T03:18:48;21.20;99.90
13806;DHT22;6974;53.606;9.872;2022-08-25T03:21:16;21.30;99.90
13806;DHT22;6974;53.606;9.872;2022-08-25T03:23:43;21.20;99.90
13806;DHT22;6974;53.606;9.872;2022-08-25T03:26:10;21.20;99.90
13806;DHT22;6974;53.606;9.872;2022-08-25T03:28:55;21.20;99.90
13806;DHT22;6974;53.606;9.872;2022-08-25T03:31:22;21.10;99.90
13806;DHT22;6974;53.606;9.872;2022-08-25T03:33:52;21.10;99.90
13806;DHT22;6974;53.606;9.872;2022-08-25T03:36:19;21.10;99.90
13806;DHT22;6974;53.606;9.872;2022-08-25T03:38:46;21.10;99.90
13806;DHT22;6974;53.606;9.872;2022-08-25T03:41:15;21.10;99.90
13806;DHT22;6974;53.606;9.872;2022-08-25T03:43:42;21.00;99.90
13806;DHT22;6974;53.606;9.872;2022-08-25T03:46:16;21.00;99.90
13806;DHT22;6974;53.606;9.872;2022-08-25T03:48:45;21.00;99.90
13806;DHT22;6974;53.606;9.872;2022-08-25T03:51:18;20.90;99.90
13806;DHT22;6974;53.606;9.872;2022-08-25T03:53:46;20.90;99.90
13806;DHT22;6974;53.606;9.872;2022-08-25T03:56:13;20.90;99.90
13806;DHT22;6974;53.606;9.872;2022-08-25T03:58:40;20.90;99.90
13806;DHT22;6974;53.606;9.872;2022-08-25T04:01:09;20.90;99.90
13806;DHT22;6974;53.606;9.872;2022-08-25T04:03:36;20.90;99.90
13806;DHT22;6974;53.606;9.872;2022-08-25T04:06:05;20.90;99.90
13806;DHT22;6974;53.606;9.872;2022-08-25T04:08:34;20.90;99.90
13806;DHT22;6974;53.606;9.872;2022-08-25T04:11:05;20.90;99.90
13806;DHT22;6974;53.606;9.872;2022-08-25T04:13:32;20.90;99.90
13806;DHT22;6974;53.606;9.872;2022-08-25T04:16:00;20.80;99.90
13806;DHT22;6974;53.606;9.872;2022-08-25T04:18:27;20.80;99.90
13806;DHT22;6974;53.606;9.872;2022-08-25T04:21:01;20.80;99.90
13806;DHT22;6974;53.606;9.872;2022-08-25T04:23:29;20.80;99.90
13806;DHT22;6974;53.606;9.872;2022-08-25T04:25:57;20.70;99.90
13806;DHT22;6974;53.606;9.872;2022-08-25T04:28:25;20.80;99.90
13806;DHT22;6974;53.606;9.872;2022-08-25T04:30:52;20.70;99.90
13806;DHT22;6974;53.606;9.872;2022-08-25T04:33:19;20.80;99.90
13806;DHT22;6974;53.606;9.872;2022-08-25T04:35:48;20.80;99.90
13806;DHT22;6974;53.606;9.872;2022-08-25T04:38:15;20.80;99.90
13806;DHT22;6974;53.606;9.872;2022-08-25T04:40:43;20.70;99.90
13806;DHT22;6974;53.606;9.872;2022-08-25T04:43:11;20.70;99.90
13806;DHT22;6974;53.606;9.872;2022-08-25T04:45:40;20.80;99.90
13806;DHT22;6974;53.606;9.872;2022-08-25T04:48:07;20.70;99.90
13806;DHT22;6974;53.606;9.872;2022-08-25T04:50:37;20.80;99.90
13806;DHT22;6974;53.606;9.872;2022-08-25T04:53:05;20.80;99.90
13806;DHT22;6974;53.606;9.872;2022-08-25T04:55:32;20.70;99.90
13806;DHT22;6974;53.606;9.872;2022-08-25T04:57:59;20.80;99.90
13806;DHT22;6974;53.606;9.872;2022-08-25T05:00:27;20.70;99.90
13806;DHT22;6974;53.606;9.872;2022-08-25T05:02:54;20.70;99.90
13806;DHT22;6974;53.606;9.872;2022-08-25T05:05:21;20.80;99.90
13806;DHT22;6974;53.606;9.872;2022-08-25T05:07:48;20.80;99.90
13806;DHT22;6974;53.606;9.872;2022-08-25T05:10:15;20.80;99.90
13806;DHT22;6974;53.606;9.872;2022-08-25T05:12:42;20.80;99.90
13806;DHT22;6974;53.606;9.872;2022-08-25T05:15:10;20.80;99.90
13806;DHT22;6974;53.606;9.872;2022-08-25T05:17:56;20.90;99.90
13806;DHT22;6974;53.606;9.872;2022-08-25T05:20:23;20.90;99.90
13806;DHT22;6974;53.606;9.872;2022-08-25T05:22:51;20.90;99.90
13806;DHT22;6974;53.606;9.872;2022-08-25T05:25:18;20.90;99.90
13806;DHT22;6974;53.606;9.872;2022-08-25T05:27:45;20.90;99.90
13806;DHT22;6974;53.606;9.872;2022-08-25T05:30:12;20.90;99.90
13806;DHT22;6974;53.606;9.872;2022-08-25T05:32:39;20.90;99.90
13806;DHT22;6974;53.606;9.872;2022-08-25T05:35:08;21.00;99.90
13806;DHT22;6974;53.606;9.872;2022-08-25T05:37:36;21.00;99.90
13806;DHT22;6974;53.606;9.872;2022-08-25T05:40:04;21.00;99.90
13806;DHT22;6974;53.606;9.872;2022-08-25T05:42:31;21.00;99.90
13806;DHT22;6974;53.606;9.872;2022-08-25T05:44:58;21.00;99.90
13806;DHT22;6974;53.606;9.872;2022-08-25T05:47:25;21.00;99.90
13806;DHT22;6974;53.606;9.872;2022-08-25T05:49:53;21.00;99.90
13806;DHT22;6974;53.606;9.872;2022-08-25T05:52:22;21.10;99.90
13806;DHT22;6974;53.606;9.872;2022-08-25T05:54:49;21.20;99.90
13806;DHT22;6974;53.606;9.872;2022-08-25T05:57:16;21.20;99.90
13806;DHT22;6974;53.606;9.872;2022-08-25T05:59:43;21.20;99.90
13806;DHT22;6974;53.606;9.872;2022-08-25T06:02:10;21.20;99.90
13806;DHT22;6974;53.606;9.872;2022-08-25T06:04:54;21.30;99.90
13806;DHT22;6974;53.606;9.872;2022-08-25T06:07:22;21.40;99.90
13806;DHT22;6974;53.606;9.872;2022-08-25T06:09:49;21.40;99.90
13806;DHT22;6974;53.606;9.872;2022-08-25T06:12:18;21.30;99.90
13806;DHT22;6974;53.606;9.872;2022-08-25T06:14:46;21.20;99.90
13806;DHT22;6974;53.606;9.872;2022-08-25T06:17:14;21.30;99.90
13806;DHT22;6974;53.606;9.872;2022-08-25T06:19:41;21.30;99.90
13806;DHT22;6974;53.606;9.872;2022-08-25T06:22:09;21.30;99.90
13806;DHT22;6974;53.606;9.872;2022-08-25T06:24:37;21.20;99.90
13806;DHT22;6974;53.606;9.872;2022-08-25T06:27:04;21.30;99.90
13806;DHT22;6974;53.606;9.872;2022-08-25T06:29:31;21.30;99.90
13806;DHT22;6974;53.606;9.872;2022-08-25T06:31:58;21.30;99.90
13806;DHT22;6974;53.606;9.872;2022-08-25T06:34:26;21.30;99.90
13806;DHT22;6974;53.606;9.872;2022-08-25T06:36:53;21.30;99.90
13806;DHT22;6974;53.606;9.872;2022-08-25T06:39:20;21.30;99.90
13806;DHT22;6974;53.606;9.872;2022-08-25T06:41:52;21.20;99.90
13806;DHT22;6974;53.606;9.872;2022-08-25T06:44:19;21.20;99.90
13806;DHT22;6974;53.606;9.872;2022-08-25T06:46:46;21.20;99.90
13806;DHT22;6974;53.606;9.872;2022-08-25T06:49:13;21.20;99.90
13806;DHT22;6974;53.606;9.872;2022-08-25T06:51:40;21.20;99.90
13806;DHT22;6974;53.606;9.872;2022-08-25T06:54:08;21.30;99.90
13806;DHT22;6974;53.606;9.872;2022-08-25T06:56:36;21.40;99.90
13806;DHT22;6974;53.606;9.872;2022-08-25T06:59:08;21.40;99.90
13806;DHT22;6974;53.606;9.872;2022-08-25T07:01:35;21.40;99.90
13806;DHT22;6974;53.606;9.872;2022-08-25T07:04:04;21.40;99.90
13806;DHT22;6974;53.606;9.872;2022-08-25T07:06:32;21.30;99.90
13806;DHT22;6974;53.606;9.872;2022-08-25T07:09:01;21.40;99.90
13806;DHT22;6974;53.606;9.872;2022-08-25T07:11:28;21.40;99.90
13806;DHT22;6974;53.606;9.872;2022-08-25T07:13:59;21.40;99.90
13806;DHT22;6974;53.606;9.872;2022-08-25T07:16:29;21.40;99.90
13806;DHT22;6974;53.606;9.872;2022-08-25T07:18:57;21.50;99.90
13806;DHT22;6974;53.606;9.872;2022-08-25T07:21:26;21.50;99.90
13806;DHT22;6974;53.606;9.872;2022-08-25T07:23:54;21.50;99.90
13806;DHT22;6974;53.606;9.872;2022-08-25T07:26:26;21.40;99.90
13806;DHT22;6974;53.606;9.872;2022-08-25T07:28:55;21.50;99.90
13806;DHT22;6974;53.606;9.872;2022-08-25T07:31:23;21.50;99.90
13806;DHT22;6974;53.606;9.872;2022-08-25T07:33:51;21.60;99.90
13806;DHT22;6974;53.606;9.872;2022-08-25T07:36:36;21.60;99.90
13806;DHT22;6974;53.606;9.872;2022-08-25T07:39:03;21.60;99.90
13806;DHT22;6974;53.606;9.872;2022-08-25T07:41:31;21.70;99.90
13806;DHT22;6974;53.606;9.872;2022-08-25T07:43:59;21.60;99.90
13806;DHT22;6974;53.606;9.872;2022-08-25T07:46:26;21.70;99.90
13806;DHT22;6974;53.606;9.872;2022-08-25T07:48:54;21.70;99.90
13806;DHT22;6974;53.606;9.872;2022-08-25T07:51:22;21.70;99.90
13806;DHT22;6974;53.606;9.872;2022-08-25T07:53:49;21.70;99.90
13806;DHT22;6974;53.606;9.872;2022-08-25T07:56:17;21.80;99.90
13806;DHT22;6974;53.606;9.872;2022-08-25T07:58:46;21.80;99.90
13806;DHT22;6974;53.606;9.872;2022-08-25T08:01:14;21.80;99.90
13806;DHT22;6974;53.606;9.872;2022-08-25T08:03:41;21.90;99.90
13806;DHT22;6974;53.606;9.872;2022-08-25T08:06:12;21.90;99.90
13806;DHT22;6974;53.606;9.872;2022-08-25T08:08:39;21.90;99.90
13806;DHT22;6974;53.606;9.872;2022-08-25T08:11:13;22.00;99.90
13806;DHT22;6974;53.606;9.872;2022-08-25T08:13:40;22.00;99.90
13806;DHT22;6974;53.606;9.872;2022-08-25T08:16:08;22.10;99.90
13806;DHT22;6974;53.606;9.872;2022-08-25T08:18:35;22.10;99.90
13806;DHT22;6974;53.606;9.872;2022-08-25T08:21:03;22.20;99.90
13806;DHT22;6974;53.606;9.872;2022-08-25T08:23:31;22.20;99.90
13806;DHT22;6974;53.606;9.872;2022-08-25T08:25:58;22.20;99.90
13806;DHT22;6974;53.606;9.872;2022-08-25T08:28:25;22.20;99.90
13806;DHT22;6974;53.606;9.872;2022-08-25T08:30:52;22.20;99.90
13806;DHT22;6974;53.606;9.872;2022-08-25T08:33:21;22.20;99.90
13806;DHT22;6974;53.606;9.872;2022-08-25T08:35:55;22.20;99.90
13806;DHT22;6974;53.606;9.872;2022-08-25T08:38:22;22.30;99.90
13806;DHT22;6974;53.606;9.872;2022-08-25T08:40:59;22.30;99.90
13806;DHT22;6974;53.606;9.872;2022-08-25T08:43:47;22.40;99.90
13806;DHT22;6974;53.606;9.872;2022-08-25T08:46:16;22.50;99.90
13806;DHT22;6974;53.606;9.872;2022-08-25T08:48:50;22.50;99.90
13806;DHT22;6974;53.606;9.872;2022-08-25T08:51:23;22.50;99.90
13806;DHT22;6974;53.606;9.872;2022-08-25T08:53:54;22.50;99.90
13806;DHT22;6974;53.606;9.872;2022-08-25T08:56:26;22.50;99.90
13806;DHT22;6974;53.606;9.872;2022-08-25T08:58:57;22.50;99.90
13806;DHT22;6974;53.606;9.872;2022-08-25T09:01:29;22.50;99.90
13806;DHT22;6974;53.606;9.872;2022-08-25T09:04:01;22.60;99.90
13806;DHT22;6974;53.606;9.872;2022-08-25T09:06:37;22.60;99.90
13806;DHT22;6974;53.606;9.872;2022-08-25T09:09:07;22.60;99.90
13806;DHT22;6974;53.606;9.872;2022-08-25T09:11:46;22.50;99.90
13806;DHT22;6974;53.606;9.872;2022-08-25T09:14:24;22.60;99.90
13806;DHT22;6974;53.606;9.872;2022-08-25T09:16:58;22.70;99.90
13806;DHT22;6974;53.606;9.872;2022-08-25T09:19:44;22.70;99.90
13806;DHT22;6974;53.606;9.872;2022-08-25T09:22:23;22.80;99.90
13806;DHT22;6974;53.606;9.872;2022-08-25T09:24:59;22.80;99.90
13806;DHT22;6974;53.606;9.872;2022-08-25T09:27:35;22.80;99.90
13806;DHT22;6974;53.606;9.872;2022-08-25T09:30:10;22.90;99.90
13806;DHT22;6974;53.606;9.872;2022-08-25T09:32:41;22.90;99.90
13806;DHT22;6974;53.606;9.872;2022-08-25T09:35:15;22.90;99.90
13806;DHT22;6974;53.606;9.872;2022-08-25T09:37:54;22.90;99.90
13806;DHT22;6974;53.606;9.872;2022-08-25T09:40:22;22.90;99.90
13806;DHT22;6974;53.606;9.872;2022-08-25T09:42:53;22.90;99.90
13806;DHT22;6974;53.606;9.872;2022-08-25T09:45:34;22.80;99.90
13806;DHT22;6974;53.606;9.872;2022-08-25T09:48:02;22.90;99.90
13806;DHT22;6974;53.606;9.872;2022-08-25T09:50:49;22.90;99.90
13806;DHT22;6974;53.606;9.872;2022-08-25T09:53:17;23.00;99.90
13806;DHT22;6974;53.606;9.872;2022-08-25T09:55:46;23.10;99.90
13806;DHT22;6974;53.606;9.872;2022-08-25T09:58:22;23.20;99.90
13806;DHT22;6974;53.606;9.872;2022-08-25T10:01:02;23.40;99.90
13806;DHT22;6974;53.606;9.872;2022-08-25T10:03:31;23.60;99.90
13806;DHT22;6974;53.606;9.872;2022-08-25T10:06:02;23.90;99.90
13806;DHT22;6974;53.606;9.872;2022-08-25T10:08:34;24.10;99.90
13806;DHT22;6974;53.606;9.872;2022-08-25T10:11:04;24.40;99.90
13806;DHT22;6974;53.606;9.872;2022-08-25T10:13:40;24.70;99.90
13806;DHT22;6974;53.606;9.872;2022-08-25T10:16:11;24.90;99.90
13806;DHT22;6974;53.606;9.872;2022-08-25T10:18:38;25.10;99.90
13806;DHT22;6974;53.606;9.872;2022-08-25T10:21:09;25.20;99.90
13806;DHT22;6974;53.606;9.872;2022-08-25T10:23:41;25.20;99.90
13806;DHT22;6974;53.606;9.872;2022-08-25T10:26:14;25.30;99.90
13806;DHT22;6974;53.606;9.872;2022-08-25T10:28:53;25.30;99.90
13806;DHT22;6974;53.606;9.872;2022-08-25T10:31:31;25.50;99.90
13806;DHT22;6974;53.606;9.872;2022-08-25T10:34:09;25.50;99.90
13806;DHT22;6974;53.606;9.872;2022-08-25T10:36:48;25.70;99.90
13806;DHT22;6974;53.606;9.872;2022-08-25T10:39:31;25.80;99.90
13806;DHT22;6974;53.606;9.872;2022-08-25T10:42:07;25.90;99.90
13806;DHT22;6974;53.606;9.872;2022-08-25T10:44:45;25.90;99.90
13806;DHT22;6974;53.606;9.872;2022-08-25T10:47:56;26.00;99.90
13806;DHT22;6974;53.606;9.872;2022-08-25T10:50:28;26.20;99.90
13806;DHT22;6974;53.606;9.872;2022-08-25T10:53:14;26.30;99.90
13806;DHT22;6974;53.606;9.872;2022-08-25T10:55:50;26.40;99.90
13806;DHT22;6974;53.606;9.872;2022-08-25T10:58:29;26.50;99.90
13806;DHT22;6974;53.606;9.872;2022-08-25T11:01:07;26.60;99.90
13806;DHT22;6974;53.606;9.872;2022-08-25T11:03:43;26.70;99.90
13806;DHT22;6974;53.606;9.872;2022-08-25T11:06:16;26.80;99.90
13806;DHT22;6974;53.606;9.872;2022-08-25T11:08:47;26.80;99.90
13806;DHT22;6974;53.606;9.872;2022-08-25T11:11:25;26.90;99.90
13806;DHT22;6974;53.606;9.872;2022-08-25T11:13:57;27.10;99.90
13806;DHT22;6974;53.606;9.872;2022-08-25T11:16:34;27.10;99.90
13806;DHT22;6974;53.606;9.872;2022-08-25T11:19:08;27.20;99.90
13806;DHT22;6974;53.606;9.872;2022-08-25T11:21:42;27.30;99.90
13806;DHT22;6974;53.606;9.872;2022-08-25T11:24:25;27.40;99.90
13806;DHT22;6974;53.606;9.872;2022-08-25T11:26:55;27.50;99.90
13806;DHT22;6974;53.606;9.872;2022-08-25T11:29:25;27.50;99.90
13806;DHT22;6974;53.606;9.872;2022-08-25T11:31:58;27.60;99.90
13806;DHT22;6974;53.606;9.872;2022-08-25T11:34:27;27.70;99.90
13806;DHT22;6974;53.606;9.872;2022-08-25T11:36:59;27.70;99.90
13806;DHT22;6974;53.606;9.872;2022-08-25T11:39:43;27.50;99.90
13806;DHT22;6974;53.606;9.872;2022-08-25T11:42:23;27.20;99.90
13806;DHT22;6974;53.606;9.872;2022-08-25T11:45:04;27.10;99.90
13806;DHT22;6974;53.606;9.872;2022-08-25T11:47:51;26.90;99.90
13806;DHT22;6974;53.606;9.872;2022-08-25T11:50:28;26.90;99.90
13806;DHT22;6974;53.606;9.872;2022-08-25T11:52:56;27.00;99.90
13806;DHT22;6974;53.606;9.872;2022-08-25T11:55:31;27.10;99.90
13806;DHT22;6974;53.606;9.872;2022-08-25T12:01:59;27.40;99.90
13806;DHT22;6974;53.606;9.872;2022-08-25T12:04:34;27.50;99.90
13806;DHT22;6974;53.606;9.872;2022-08-25T12:07:21;27.60;99.90
13806;DHT22;6974;53.606;9.872;2022-08-25T12:10:09;27.60;99.90
13806;DHT22;6974;53.606;9.872;2022-08-25T12:12:54;27.50;99.90
13806;DHT22;6974;53.606;9.872;2022-08-25T12:15:23;27.50;99.90
13806;DHT22;6974;53.606;9.872;2022-08-25T12:18:09;27.40;99.90
13806;DHT22;6974;53.606;9.872;2022-08-25T12:21:15;27.40;99.90
13806;DHT22;6974;53.606;9.872;2022-08-25T12:24:12;27.30;99.90
13806;DHT22;6974;53.606;9.872;2022-08-25T12:26:46;27.20;99.90
13806;DHT22;6974;53.606;9.872;2022-08-25T12:29:18;27.30;99.90
13806;DHT22;6974;53.606;9.872;2022-08-25T12:32:04;27.20;99.90
13806;DHT22;6974;53.606;9.872;2022-08-25T12:35:00;27.20;99.90
13806;DHT22;6974;53.606;9.872;2022-08-25T12:37:30;27.20;99.90
13806;DHT22;6974;53.606;9.872;2022-08-25T12:39:59;27.20;99.90
13806;DHT22;6974;53.606;9.872;2022-08-25T12:42:30;27.10;99.90
13806;DHT22;6974;53.606;9.872;2022-08-25T12:45:13;27.10;99.90
13806;DHT22;6974;53.606;9.872;2022-08-25T12:47:41;27.20;99.90
13806;DHT22;6974;53.606;9.872;2022-08-25T12:50:29;27.30;99.90
13806;DHT22;6974;53.606;9.872;2022-08-25T12:53:09;27.30;99.90
13806;DHT22;6974;53.606;9.872;2022-08-25T12:55:37;27.30;99.90
13806;DHT22;6974;53.606;9.872;2022-08-25T12:58:06;27.20;99.90
13806;DHT22;6974;53.606;9.872;2022-08-25T13:00:44;27.20;99.90
13806;DHT22;6974;53.606;9.872;2022-08-25T13:03:25;27.30;99.90
13806;DHT22;6974;53.606;9.872;2022-08-25T13:06:26;27.40;99.90
13806;DHT22;6974;53.606;9.872;2022-08-25T13:09:21;27.40;99.90
13806;DHT22;6974;53.606;9.872;2022-08-25T13:11:59;27.50;99.90
13806;DHT22;6974;53.606;9.872;2022-08-25T13:14:32;27.40;99.90
13806;DHT22;6974;53.606;9.872;2022-08-25T13:17:02;27.30;99.90
13806;DHT22;6974;53.606;9.872;2022-08-25T13:19:29;27.20;99.90
13806;DHT22;6974;53.606;9.872;2022-08-25T13:21:59;27.20;99.90
13806;DHT22;6974;53.606;9.872;2022-08-25T13:24:31;27.20;99.90
13806;DHT22;6974;53.606;9.872;2022-08-25T13:27:00;27.20;99.90
13806;DHT22;6974;53.606;9.872;2022-08-25T13:29:29;27.20;99.90
13806;DHT22;6974;53.606;9.872;2022-08-25T13:31:59;27.10;99.90
13806;DHT22;6974;53.606;9.872;2022-08-25T13:34:27;27.10;99.90
13806;DHT22;6974;53.606;9.872;2022-08-25T13:37:04;27.10;99.90
13806;DHT22;6974;53.606;9.872;2022-08-25T13:39:50;27.10;99.90
13806;DHT22;6974;53.606;9.872;2022-08-25T13:42:17;27.20;99.90
13806;DHT22;6974;53.606;9.872;2022-08-25T13:44:44;27.30;99.90
13806;DHT22;6974;53.606;9.872;2022-08-25T13:47:13;27.30;99.90
13806;DHT22;6974;53.606;9.872;2022-08-25T13:49:42;27.40;99.90
13806;DHT22;6974;53.606;9.872;2022-08-25T13:52:16;27.50;99.90
13806;DHT22;6974;53.606;9.872;2022-08-25T13:54:45;27.80;99.90
13806;DHT22;6974;53.606;9.872;2022-08-25T13:57:18;28.00;99.90
13806;DHT22;6974;53.606;9.872;2022-08-25T13:59:49;28.30;99.90
13806;DHT22;6974;53.606;9.872;2022-08-25T14:02:38;28.50;99.90
13806;DHT22;6974;53.606;9.872;2022-08-25T14:05:06;28.50;99.90
13806;DHT22;6974;53.606;9.872;2022-08-25T14:07:33;28.30;99.90
13806;DHT22;6974;53.606;9.872;2022-08-25T14:10:02;28.20;99.90
13806;DHT22;6974;53.606;9.872;2022-08-25T14:12:36;28.10;99.90
13806;DHT22;6974;53.606;9.872;2022-08-25T14:15:26;28.00;99.90
13806;DHT22;6974;53.606;9.872;2022-08-25T14:18:01;27.80;99.90
13806;DHT22;6974;53.606;9.872;2022-08-25T14:20:30;27.70;99.90
13806;DHT22;6974;53.606;9.872;2022-08-25T14:22:59;27.70;99.90
13806;DHT22;6974;53.606;9.872;2022-08-25T14:25:29;27.70;99.90
13806;DHT22;6974;53.606;9.872;2022-08-25T14:27:59;27.70;99.90
13806;DHT22;6974;53.606;9.872;2022-08-25T14:30:27;27.80;99.90
13806;DHT22;6974;53.606;9.872;2022-08-25T14:32:54;27.90;99.90
13806;DHT22;6974;53.606;9.872;2022-08-25T14:35:21;27.90;99.90
13806;DHT22;6974;53.606;9.872;2022-08-25T14:37:48;27.90;99.90
13806;DHT22;6974;53.606;9.872;2022-08-25T14:40:15;27.80;99.90
13806;DHT22;6974;53.606;9.872;2022-08-25T14:42:44;27.80;99.90
13806;DHT22;6974;53.606;9.872;2022-08-25T14:45:13;27.90;99.90
13806;DHT22;6974;53.606;9.872;2022-08-25T14:47:40;27.90;99.90
13806;DHT22;6974;53.606;9.872;2022-08-25T14:50:07;27.80;99.90
13806;DHT22;6974;53.606;9.872;2022-08-25T14:52:36;27.80;99.90
13806;DHT22;6974;53.606;9.872;2022-08-25T14:55:03;27.90;99.90
13806;DHT22;6974;53.606;9.872;2022-08-25T14:57:30;27.90;99.90
13806;DHT22;6974;53.606;9.872;2022-08-25T14:59:57;28.00;99.90
13806;DHT22;6974;53.606;9.872;2022-08-25T15:02:27;28.00;99.90
13806;DHT22;6974;53.606;9.872;2022-08-25T15:04:56;28.20;99.90
13806;DHT22;6974;53.606;9.872;2022-08-25T15:07:24;28.40;99.90
13806;DHT22;6974;53.606;9.872;2022-08-25T15:10:06;28.60;99.90
13806;DHT22;6974;53.606;9.872;2022-08-25T15:12:34;28.80;99.90
13806;DHT22;6974;53.606;9.872;2022-08-25T15:15:02;28.90;99.90
13806;DHT22;6974;53.606;9.872;2022-08-25T15:17:30;29.10;99.90
13806;DHT22;6974;53.606;9.872;2022-08-25T15:19:57;29.20;99.90
13806;DHT22;6974;53.606;9.872;2022-08-25T15:22:24;29.40;99.90
13806;DHT22;6974;53.606;9.872;2022-08-25T15:24:51;29.50;99.90
13806;DHT22;6974;53.606;9.872;2022-08-25T15:27:18;29.60;99.90
13806;DHT22;6974;53.606;9.872;2022-08-25T15:29:46;29.60;99.90
13806;DHT22;6974;53.606;9.872;2022-08-25T15:32:13;29.50;99.90
13806;DHT22;6974;53.606;9.872;2022-08-25T15:34:41;29.30;99.90
13806;DHT22;6974;53.606;9.872;2022-08-25T15:37:10;29.00;99.90
13806;DHT22;6974;53.606;9.872;2022-08-25T15:39:38;29.00;99.90
13806;DHT22;6974;53.606;9.872;2022-08-25T15:42:05;29.00;99.90
13806;DHT22;6974;53.606;9.872;2022-08-25T15:44:32;29.00;99.90
13806;DHT22;6974;53.606;9.872;2022-08-25T15:46:59;29.00;99.90
13806;DHT22;6974;53.606;9.872;2022-08-25T15:49:26;28.90;99.90
13806;DHT22;6974;53.606;9.872;2022-08-25T15:51:55;28.80;99.90
13806;DHT22;6974;53.606;9.872;2022-08-25T15:54:22;28.80;99.90
13806;DHT22;6974;53.606;9.872;2022-08-25T15:56:50;28.80;99.90
13806;DHT22;6974;53.606;9.872;2022-08-25T15:59:17;28.70;99.90
13806;DHT22;6974;53.606;9.872;2022-08-25T16:01:44;28.60;99.90
13806;DHT22;6974;53.606;9.872;2022-08-25T16:04:12;28.50;99.90
13806;DHT22;6974;53.606;9.872;2022-08-25T16:06:39;28.50;99.90
13806;DHT22;6974;53.606;9.872;2022-08-25T16:09:08;28.30;99.90
13806;DHT22;6974;53.606;9.872;2022-08-25T16:11:34;28.30;99.90
13806;DHT22;6974;53.606;9.872;2022-08-25T16:14:03;28.30;99.90
13806;DHT22;6974;53.606;9.872;2022-08-25T16:16:31;28.20;99.90